createdAt,value
2023-02-13T00:01:32.961Z,0.60
2023-02-13T00:04:01.340Z,0.40
2023-02-13T00:06:32.082Z,0.90
2023-02-13T00:09:01.068Z,0.60
2023-02-13T00:11:36.646Z,0.90
2023-02-13T00:14:05.959Z,0.60
2023-02-13T00:16:34.803Z,0.60
2023-02-13T00:19:03.416Z,0.70
2023-02-13T00:21:36.374Z,0.60
2023-02-13T00:24:06.707Z,1.00
2023-02-13T00:26:35.190Z,0.50
2023-02-13T00:29:10.050Z,0.80
2023-02-13T00:31:40.459Z,1.30
2023-02-13T00:34:09.117Z,0.40
2023-02-13T00:36:38.477Z,0.50
2023-02-13T00:39:07.062Z,0.80
2023-02-13T00:41:36.045Z,0.70
2023-02-13T00:44:04.990Z,0.40
2023-02-13T00:46:34.780Z,0.80
2023-02-13T00:49:03.716Z,0.60
2023-02-13T00:51:35.036Z,0.70
2023-02-13T00:54:03.793Z,0.60
2023-02-13T00:56:34.565Z,0.60
2023-02-13T00:59:05.294Z,0.90
2023-02-13T01:01:34.641Z,0.90
2023-02-13T01:04:03.507Z,0.80
2023-02-13T01:06:32.386Z,0.50
2023-02-13T01:09:03.594Z,0.50
2023-02-13T01:11:32.288Z,0.60
2023-02-13T01:14:02.177Z,0.70
2023-02-13T01:16:32.962Z,0.90
2023-02-13T01:19:03.398Z,0.90
2023-02-13T01:21:33.137Z,0.80
2023-02-13T01:24:04.163Z,0.60
2023-02-13T01:29:02.196Z,0.60
2023-02-13T01:31:30.726Z,0.60
2023-02-13T01:34:00.035Z,0.70
2023-02-13T01:36:30.044Z,0.60
2023-02-13T01:38:59.748Z,0.70
2023-02-13T01:41:29.000Z,0.50
2023-02-13T01:44:00.287Z,0.60
2023-02-13T01:46:42.851Z,0.80
2023-02-13T01:49:15.983Z,1.30
2023-02-13T01:51:44.678Z,1.10
2023-02-13T01:54:19.317Z,0.70
2023-02-13T01:56:54.810Z,0.60
2023-02-13T01:59:31.621Z,0.60
2023-02-13T02:02:00.168Z,0.80
2023-02-13T02:04:34.045Z,0.70
2023-02-13T02:07:14.724Z,0.90
2023-02-13T02:09:44.512Z,1.10
2023-02-13T02:12:17.830Z,0.60
2023-02-13T02:14:51.512Z,0.60
2023-02-13T02:17:22.434Z,2.30
2023-02-13T02:19:57.800Z,1.00
2023-02-13T02:23:21.581Z,0.70
2023-02-13T02:26:23.002Z,1.20
2023-02-13T02:29:31.418Z,1.20
2023-02-13T02:32:19.214Z,0.60
2023-02-13T02:35:13.585Z,1.00
2023-02-13T02:38:06.424Z,0.70
2023-02-13T02:40:50.773Z,0.70
2023-02-13T02:43:24.637Z,0.90
2023-02-13T02:46:25.554Z,1.10
2023-02-13T02:49:16.093Z,0.70
2023-02-13T02:51:54.440Z,0.90
2023-02-13T02:54:44.602Z,0.70
2023-02-13T02:57:17.393Z,0.80
2023-02-13T03:00:05.072Z,0.80
2023-02-13T03:02:52.331Z,0.70
2023-02-13T03:05:57.777Z,1.00
2023-02-13T03:08:48.215Z,1.00
2023-02-13T03:11:35.594Z,0.80
2023-02-13T03:14:04.914Z,0.90
2023-02-13T03:16:52.324Z,1.20
2023-02-13T03:19:48.592Z,1.10
2023-02-13T03:22:28.553Z,0.90
2023-02-13T03:25:18.996Z,1.00
2023-02-13T03:28:20.632Z,0.80
2023-02-13T03:31:16.118Z,0.80
2023-02-13T03:33:59.687Z,1.20
2023-02-13T03:37:06.909Z,0.80
2023-02-13T03:39:44.840Z,0.80
2023-02-13T03:42:49.492Z,0.70
2023-02-13T03:45:48.273Z,0.60
2023-02-13T03:48:59.122Z,0.70
2023-02-13T03:51:44.075Z,0.90
2023-02-13T03:54:47.873Z,1.40
2023-02-13T03:57:37.760Z,1.10
2023-02-13T04:00:08.919Z,1.10
2023-02-13T04:02:52.991Z,1.10
2023-02-13T04:05:23.477Z,0.80
2023-02-13T04:07:52.270Z,1.00
2023-02-13T04:18:27.330Z,1.00
2023-02-13T04:20:56.070Z,1.20
2023-02-13T04:23:25.155Z,1.30
2023-02-13T04:25:54.571Z,1.40
2023-02-13T04:28:24.834Z,1.20
2023-02-13T04:30:53.443Z,1.20
2023-02-13T04:33:22.776Z,0.90
2023-02-13T04:35:51.434Z,0.90
2023-02-13T04:38:20.734Z,1.80
2023-02-13T04:40:49.532Z,1.20
2023-02-13T04:43:18.105Z,2.40
2023-02-13T04:53:32.033Z,8.80
2023-02-13T04:56:00.630Z,7.30
2023-02-13T04:58:29.785Z,5.70
2023-02-13T05:00:58.637Z,4.10
2023-02-13T05:03:27.889Z,4.60
2023-02-13T05:05:56.829Z,6.60
2023-02-13T05:08:26.270Z,6.50
2023-02-13T05:10:56.187Z,8.20
2023-02-13T05:13:30.403Z,5.50
2023-02-13T05:15:58.899Z,7.10
2023-02-13T05:18:27.686Z,6.00
2023-02-13T05:21:15.090Z,5.00
2023-02-13T05:23:43.577Z,3.90
2023-02-13T05:26:12.259Z,3.50
2023-02-13T05:28:59.480Z,3.90
2023-02-13T05:31:28.683Z,2.70
2023-02-13T05:33:57.294Z,4.10
2023-02-13T05:36:26.049Z,3.40
2023-02-13T05:38:54.541Z,1.70
2023-02-13T05:41:23.018Z,2.10
2023-02-13T05:43:51.495Z,1.30
2023-02-13T05:46:19.810Z,1.40
2023-02-13T05:48:52.463Z,1.40
2023-02-13T05:51:21.244Z,1.50
2023-02-13T05:53:49.740Z,0.90
2023-02-13T05:56:18.842Z,1.40
2023-02-13T05:58:47.432Z,1.30
2023-02-13T06:01:15.912Z,1.30
2023-02-13T06:03:44.858Z,1.10
2023-02-13T06:06:13.633Z,1.00
2023-02-13T06:08:42.862Z,1.40
2023-02-13T06:11:12.159Z,0.90
2023-02-13T06:13:41.048Z,1.10
2023-02-13T06:16:10.252Z,1.10
2023-02-13T06:18:40.160Z,1.10
2023-02-13T06:21:08.541Z,1.10
2023-02-13T06:23:37.431Z,1.30
2023-02-13T06:26:06.657Z,1.10
2023-02-13T06:28:36.656Z,0.80
2023-02-13T06:31:05.427Z,1.20
2023-02-13T06:33:34.042Z,1.30
2023-02-13T06:36:02.617Z,1.20
2023-02-13T06:38:32.356Z,0.90
2023-02-13T06:41:02.300Z,1.10
2023-02-13T06:43:30.856Z,1.40
2023-02-13T06:45:59.638Z,0.90
2023-02-13T06:48:28.397Z,1.00
2023-02-13T06:50:57.353Z,1.00
2023-02-13T06:53:26.272Z,1.10
2023-02-13T06:55:55.436Z,0.80
2023-02-13T06:58:24.876Z,0.90
2023-02-13T07:00:53.893Z,1.10
2023-02-13T07:03:22.790Z,0.90
2023-02-13T07:05:52.260Z,1.20
2023-02-13T07:08:20.665Z,1.30
2023-02-13T07:10:50.464Z,1.60
2023-02-13T07:13:20.197Z,1.80
2023-02-13T07:15:48.604Z,1.50
2023-02-13T07:18:18.359Z,1.30
2023-02-13T07:20:47.530Z,1.40
2023-02-13T07:23:16.361Z,1.30
2023-02-13T07:25:45.268Z,1.40
2023-02-13T07:28:14.045Z,1.30
2023-02-13T07:30:42.956Z,1.10
2023-02-13T07:33:13.350Z,1.50
2023-02-13T07:35:50.326Z,1.50
2023-02-13T07:38:22.392Z,1.60
2023-02-13T07:40:51.176Z,1.30
2023-02-13T07:43:19.454Z,1.20
2023-02-13T07:45:48.151Z,1.50
2023-02-13T07:48:16.740Z,1.50
2023-02-13T07:50:45.211Z,1.40
2023-02-13T07:53:13.908Z,1.30
2023-02-13T07:55:43.209Z,1.00
2023-02-13T07:58:12.098Z,1.20
2023-02-13T08:00:40.873Z,1.00
2023-02-13T08:03:10.379Z,1.40
2023-02-13T08:05:39.576Z,1.40
2023-02-13T08:08:08.390Z,1.10
2023-02-13T08:10:59.601Z,1.00
2023-02-13T08:13:28.225Z,1.40
2023-02-13T08:15:56.863Z,1.10
2023-02-13T08:18:25.872Z,1.00
2023-02-13T08:20:54.628Z,1.40
2023-02-13T08:23:23.911Z,0.80
2023-02-13T08:25:55.134Z,1.10
2023-02-13T08:28:24.754Z,1.20
2023-02-13T08:30:54.137Z,0.90
2023-02-13T08:33:23.689Z,1.20
2023-02-13T08:35:52.205Z,1.20
2023-02-13T08:38:23.107Z,1.10
2023-02-13T08:40:51.694Z,1.20
2023-02-13T08:43:20.173Z,1.10
2023-02-13T08:45:48.688Z,1.30
2023-02-13T08:48:17.092Z,1.10
2023-02-13T08:50:45.678Z,1.20
2023-02-13T08:53:15.459Z,1.10
2023-02-13T08:55:44.010Z,1.10
2023-02-13T08:58:13.635Z,1.10
2023-02-13T09:00:42.307Z,1.30
2023-02-13T09:03:11.380Z,1.40
2023-02-13T09:05:39.994Z,1.40
2023-02-13T09:08:11.710Z,1.10
2023-02-13T09:13:13.315Z,1.20
2023-02-13T09:15:41.903Z,1.20
2023-02-13T09:18:10.586Z,1.30
2023-02-13T09:20:39.483Z,1.10
2023-02-13T09:23:08.139Z,1.50
2023-02-13T09:25:36.848Z,1.00
2023-02-13T09:28:06.351Z,1.20
2023-02-13T09:30:35.181Z,1.20
2023-02-13T09:33:04.638Z,1.00
2023-02-13T09:35:33.149Z,1.20
2023-02-13T09:38:01.941Z,1.10
2023-02-13T09:40:37.401Z,1.00
2023-02-13T09:43:30.637Z,0.80
2023-02-13T09:46:01.465Z,1.10
2023-02-13T09:48:35.636Z,1.90
2023-02-13T09:51:04.776Z,2.20
2023-02-13T09:53:35.258Z,1.20
2023-02-13T09:56:03.943Z,1.40
2023-02-13T09:58:47.732Z,1.10
2023-02-13T10:01:16.162Z,0.90
2023-02-13T10:03:47.386Z,1.30
2023-02-13T10:06:23.850Z,0.80
2023-02-13T10:09:02.052Z,1.20
2023-02-13T10:11:49.496Z,1.20
2023-02-13T10:14:25.328Z,1.20
2023-02-13T10:16:56.045Z,1.20
2023-02-13T10:19:32.948Z,1.20
2023-02-13T10:22:12.668Z,1.60
2023-02-13T10:24:53.376Z,1.20
2023-02-13T10:27:26.394Z,1.00
2023-02-13T10:30:13.144Z,1.20
2023-02-13T10:33:18.742Z,0.80
2023-02-13T10:36:25.121Z,1.30
2023-02-13T10:39:00.194Z,0.90
2023-02-13T10:41:53.760Z,0.90
2023-02-13T10:44:47.436Z,1.00
2023-02-13T10:47:34.654Z,0.90
2023-02-13T10:50:08.978Z,0.90
2023-02-13T10:53:03.768Z,1.20
2023-02-13T10:55:54.163Z,0.80
2023-02-13T10:58:32.421Z,0.90
2023-02-13T11:01:07.423Z,0.80
2023-02-13T11:03:36.950Z,0.50
2023-02-13T11:06:12.210Z,1.10
2023-02-13T11:08:46.136Z,0.70
2023-02-13T11:11:35.532Z,1.50
2023-02-13T11:14:10.129Z,1.10
2023-02-13T11:17:02.556Z,0.70
2023-02-13T11:19:54.856Z,0.90
2023-02-13T11:22:33.309Z,0.70
2023-02-13T11:25:17.900Z,0.90
2023-02-13T11:27:46.368Z,0.60
2023-02-13T11:30:24.027Z,1.10
2023-02-13T11:33:25.235Z,0.70
2023-02-13T11:36:27.555Z,0.90
2023-02-13T11:39:19.143Z,0.60
2023-02-13T11:41:50.936Z,0.90
2023-02-13T11:44:28.610Z,1.40
2023-02-13T11:46:58.878Z,0.90
2023-02-13T11:49:37.679Z,0.80
2023-02-13T11:52:11.228Z,1.00
2023-02-13T11:54:40.954Z,1.30
2023-02-13T11:57:18.414Z,0.90
2023-02-13T11:59:48.229Z,1.00
2023-02-13T12:02:18.324Z,0.70
2023-02-13T12:04:47.689Z,0.90
2023-02-13T12:07:41.453Z,0.90
2023-02-13T12:10:17.519Z,1.10
2023-02-13T12:12:55.661Z,1.00
2023-02-13T12:15:42.138Z,1.30
2023-02-13T12:18:28.235Z,1.10
2023-02-13T12:21:10.090Z,1.20
2023-02-13T12:26:42.954Z,1.00
2023-02-13T12:29:17.925Z,1.40
2023-02-13T12:32:11.122Z,1.80
2023-02-13T12:34:59.677Z,1.30
2023-02-13T12:37:54.301Z,1.50
2023-02-13T12:40:44.241Z,1.60
2023-02-13T12:43:19.373Z,1.30
2023-02-13T12:46:04.395Z,1.30
2023-02-13T12:48:40.606Z,1.30
2023-02-13T12:51:26.000Z,1.60
2023-02-13T12:54:13.416Z,1.50
2023-02-13T12:56:42.094Z,1.20
2023-02-13T12:59:30.457Z,1.50
2023-02-13T13:02:09.642Z,1.50
2023-02-13T13:04:52.019Z,1.60
2023-02-13T13:07:23.841Z,1.00
2023-02-13T13:10:18.485Z,1.20
2023-02-13T13:13:08.429Z,0.80
2023-02-13T13:15:49.432Z,0.90
2023-02-13T13:18:38.052Z,1.10
2023-02-13T13:21:14.937Z,1.80
2023-02-13T13:24:01.266Z,1.20
2023-02-13T13:26:38.208Z,1.70
2023-02-13T13:29:11.340Z,1.30
2023-02-13T13:31:40.378Z,1.20
2023-02-13T13:34:15.351Z,1.50
2023-02-13T13:36:47.472Z,1.50
2023-02-13T13:39:34.201Z,1.60
2023-02-13T13:42:18.863Z,0.90
2023-02-13T13:44:49.902Z,2.00
2023-02-13T13:47:33.119Z,1.50
2023-02-13T13:50:02.034Z,1.90
2023-02-13T13:52:37.437Z,2.00
2023-02-13T13:55:07.096Z,1.90
2023-02-13T13:57:41.504Z,2.10
2023-02-13T14:00:13.999Z,2.80
2023-02-13T14:02:48.068Z,2.60
2023-02-13T14:05:28.513Z,2.10
2023-02-13T14:08:04.374Z,2.00
2023-02-13T14:10:32.949Z,2.00
2023-02-13T14:13:02.800Z,1.90
2023-02-13T14:15:39.011Z,1.30
2023-02-13T14:18:18.185Z,2.10
2023-02-13T14:20:50.957Z,2.30
2023-02-13T14:23:32.093Z,1.60
2023-02-13T14:26:17.116Z,1.40
2023-02-13T14:28:51.633Z,1.30
2023-02-13T14:31:28.983Z,1.90
2023-02-13T14:34:26.730Z,3.10
2023-02-13T14:37:07.866Z,3.20
2023-02-13T14:39:42.345Z,3.30
2023-02-13T14:42:25.637Z,2.90
2023-02-13T14:44:58.766Z,2.50
2023-02-13T14:47:35.789Z,2.20
2023-02-13T14:50:05.096Z,2.60
2023-02-13T14:52:35.940Z,3.10
2023-02-13T14:55:07.247Z,2.90
2023-02-13T15:00:36.866Z,3.90
2023-02-13T15:03:16.823Z,3.10
2023-02-13T15:05:50.998Z,3.60
2023-02-13T15:08:21.495Z,3.30
2023-02-13T15:10:54.401Z,3.40
2023-02-13T15:13:29.194Z,3.50
2023-02-13T15:16:09.011Z,3.30
2023-02-13T15:18:56.164Z,3.80
2023-02-13T15:21:24.685Z,3.50
2023-02-13T15:23:58.280Z,2.90
2023-02-13T15:26:30.612Z,3.30
2023-02-13T15:29:00.661Z,3.10
2023-02-13T15:31:33.748Z,2.80
2023-02-13T15:34:03.060Z,2.70
2023-02-13T15:36:36.280Z,3.10
2023-02-13T15:39:09.797Z,2.90
2023-02-13T15:41:39.858Z,3.00
2023-02-13T15:44:39.039Z,3.60
2023-02-13T15:47:09.601Z,3.70
2023-02-13T15:49:39.915Z,4.00
2023-02-13T15:52:34.849Z,3.80
2023-02-13T15:55:04.626Z,3.80
2023-02-13T15:57:34.677Z,4.10
2023-02-13T16:00:04.242Z,4.20
2023-02-13T16:02:43.947Z,4.30
2023-02-13T16:05:15.137Z,5.20
2023-02-13T16:07:57.755Z,5.20
2023-02-13T16:10:34.728Z,6.10
2023-02-13T16:13:05.781Z,5.60
2023-02-13T16:15:41.803Z,5.40
2023-02-13T16:18:17.739Z,6.10
2023-02-13T16:20:47.034Z,6.20
2023-02-13T16:23:17.564Z,6.10
2023-02-13T16:25:46.118Z,6.00
2023-02-13T16:28:25.838Z,5.60
2023-02-13T16:31:04.134Z,5.50
2023-02-13T16:33:42.408Z,6.30
2023-02-13T16:36:12.072Z,5.90
2023-02-13T16:38:50.180Z,7.30
2023-02-13T16:41:28.746Z,6.80
2023-02-13T16:44:01.112Z,7.00
2023-02-13T16:46:39.782Z,7.30
2023-02-13T16:49:10.954Z,7.50
2023-02-13T16:51:40.499Z,6.80
2023-02-13T16:54:12.152Z,7.70
2023-02-13T16:56:52.564Z,7.90
2023-02-13T16:59:22.374Z,8.30
2023-02-13T17:02:16.065Z,8.90
2023-02-13T17:04:55.806Z,8.70
2023-02-13T17:07:28.974Z,8.80
2023-02-13T17:10:03.121Z,9.30
2023-02-13T17:12:35.270Z,9.60
2023-02-13T17:15:05.383Z,9.00
2023-02-13T17:17:34.584Z,11.00
2023-02-13T17:20:04.414Z,9.80
2023-02-13T17:22:53.725Z,10.80
2023-02-13T17:25:27.265Z,8.60
2023-02-13T17:27:58.375Z,10.10
2023-02-13T17:30:29.145Z,9.40
2023-02-13T17:33:07.054Z,8.80
2023-02-13T17:35:37.978Z,9.60
2023-02-13T17:38:09.672Z,9.10
2023-02-13T17:40:41.554Z,8.70
2023-02-13T17:43:15.049Z,8.80
2023-02-13T17:45:44.429Z,7.80
2023-02-13T17:48:12.993Z,7.60
2023-02-13T17:50:42.523Z,7.70
2023-02-13T17:53:19.692Z,6.80
2023-02-13T17:55:49.879Z,6.80
2023-02-13T17:58:26.016Z,7.30
2023-02-13T18:00:55.297Z,7.80
2023-02-13T18:03:26.095Z,7.70
2023-02-13T18:05:58.262Z,8.10
2023-02-13T18:08:28.598Z,8.20
2023-02-13T18:11:01.877Z,8.40
2023-02-13T18:13:31.230Z,7.60
2023-02-13T18:16:00.577Z,7.40
2023-02-13T18:18:31.189Z,8.10
2023-02-13T18:21:00.908Z,8.70
2023-02-13T18:23:29.972Z,8.00
2023-02-13T18:26:09.715Z,8.30
2023-02-13T18:28:38.882Z,8.00
2023-02-13T18:31:10.200Z,7.90
2023-02-13T18:33:44.010Z,9.10
2023-02-13T18:36:13.685Z,8.10
2023-02-13T18:38:42.610Z,8.60
2023-02-13T18:41:11.261Z,7.30
2023-02-13T18:43:40.245Z,7.40
2023-02-13T18:46:10.774Z,7.50
2023-02-13T18:48:39.711Z,7.60
2023-02-13T18:51:08.500Z,7.20
2023-02-13T18:53:38.363Z,7.40
2023-02-13T18:56:08.269Z,7.40
2023-02-13T18:58:37.456Z,7.90
2023-02-13T19:01:10.682Z,6.70
2023-02-13T19:03:40.179Z,7.10
2023-02-13T19:06:11.330Z,7.80
2023-02-13T19:08:40.740Z,6.40
2023-02-13T19:11:17.080Z,7.10
2023-02-13T19:13:48.096Z,7.00
2023-02-13T19:16:18.994Z,6.40
2023-02-13T19:18:53.639Z,6.00
2023-02-13T19:21:31.005Z,6.40
2023-02-13T19:24:01.631Z,6.70
2023-02-13T19:26:31.112Z,7.40
2023-02-13T19:29:00.779Z,6.50
2023-02-13T19:31:32.135Z,5.60
2023-02-13T19:34:03.053Z,6.20
2023-02-13T19:36:32.767Z,6.90
2023-02-13T19:39:07.165Z,7.00
2023-02-13T19:41:36.473Z,7.00
2023-02-13T19:44:06.596Z,6.90
2023-02-13T19:46:35.680Z,7.30
2023-02-13T19:49:05.692Z,7.60
2023-02-13T19:51:34.632Z,7.00
2023-02-13T19:54:05.827Z,7.20
2023-02-13T19:56:37.098Z,7.50
2023-02-13T19:59:07.495Z,7.30
2023-02-13T20:01:38.494Z,7.80
2023-02-13T20:04:10.033Z,8.00
2023-02-13T20:06:39.466Z,7.70
2023-02-13T20:09:11.511Z,8.50
2023-02-13T20:11:40.767Z,9.40
2023-02-13T20:14:15.209Z,8.00
2023-02-13T20:16:46.682Z,8.50
2023-02-13T20:19:16.905Z,8.50
2023-02-13T20:21:46.190Z,8.30
2023-02-13T20:24:15.339Z,8.70
2023-02-13T20:26:44.549Z,9.80
2023-02-13T20:29:13.927Z,8.60
2023-02-13T20:31:43.255Z,8.80
2023-02-13T20:34:13.145Z,8.90
2023-02-13T20:36:44.270Z,9.40
2023-02-13T20:39:14.673Z,9.80
2023-02-13T20:41:48.590Z,8.50
2023-02-13T20:44:21.150Z,9.80
2023-02-13T20:46:49.840Z,9.20
2023-02-13T20:49:22.223Z,9.00
2023-02-13T20:51:53.382Z,9.20
2023-02-13T20:54:22.453Z,9.60
2023-02-13T20:56:51.034Z,8.80
2023-02-13T20:59:19.924Z,8.60
2023-02-13T21:01:49.223Z,9.20
2023-02-13T21:04:19.605Z,9.10
2023-02-13T21:06:48.232Z,8.90
2023-02-13T21:09:16.938Z,10.30
2023-02-13T21:11:46.537Z,9.40
2023-02-13T21:14:15.129Z,9.90
2023-02-13T21:16:43.726Z,10.70
2023-02-13T21:19:15.262Z,10.80
2023-02-13T21:21:44.547Z,8.70
2023-02-13T21:24:15.768Z,9.20
2023-02-13T21:26:46.388Z,9.70
2023-02-13T21:29:15.086Z,10.70
2023-02-13T21:31:47.496Z,10.00
2023-02-13T21:34:17.455Z,10.70
2023-02-13T21:36:48.693Z,10.90
2023-02-13T21:39:17.162Z,11.90
2023-02-13T21:41:45.938Z,10.30
2023-02-13T21:44:15.437Z,10.50
2023-02-13T21:46:46.447Z,10.90
2023-02-13T21:49:16.715Z,12.00
2023-02-13T21:51:46.421Z,11.90
2023-02-13T21:54:34.756Z,11.40
2023-02-13T21:57:04.186Z,11.60
2023-02-13T21:59:33.065Z,12.10
2023-02-13T22:02:03.111Z,11.60
2023-02-13T22:04:31.799Z,11.70
2023-02-13T22:07:00.473Z,11.60
2023-02-13T22:09:29.195Z,10.90
2023-02-13T22:11:57.784Z,11.50
2023-02-13T22:14:26.285Z,11.10
2023-02-13T22:16:55.192Z,12.10
2023-02-13T22:19:26.520Z,12.70
2023-02-13T22:21:55.086Z,11.60
2023-02-13T22:24:23.874Z,11.50
2023-02-13T22:26:52.149Z,11.50
2023-02-13T22:29:23.325Z,12.10
2023-02-13T22:31:51.930Z,12.40
2023-02-13T22:34:20.709Z,12.90
2023-02-13T22:36:49.074Z,12.80
2023-02-13T22:39:17.648Z,13.20
2023-02-13T22:41:46.327Z,12.80
2023-02-13T22:44:14.899Z,12.10
2023-02-13T22:46:45.661Z,14.10
2023-02-13T22:49:14.395Z,15.70
2023-02-13T22:51:42.915Z,12.70
2023-02-13T22:54:11.903Z,12.60
2023-02-13T22:56:40.613Z,12.60
2023-02-13T22:59:09.267Z,12.30
2023-02-13T23:01:38.862Z,12.60
2023-02-13T23:04:07.466Z,13.70
2023-02-13T23:06:36.095Z,11.90
2023-02-13T23:09:04.537Z,12.20
2023-02-13T23:11:52.038Z,12.00
2023-02-13T23:14:25.202Z,11.70
2023-02-13T23:17:12.364Z,12.40
2023-02-13T23:19:41.283Z,11.00
2023-02-13T23:22:12.593Z,12.10
2023-02-13T23:24:41.065Z,11.80
2023-02-13T23:27:10.166Z,12.20
2023-02-13T23:29:39.158Z,11.30
2023-02-13T23:32:08.188Z,12.10
2023-02-13T23:34:36.968Z,11.40
2023-02-13T23:37:05.834Z,11.90
2023-02-13T23:39:34.590Z,11.50
2023-02-13T23:42:03.208Z,11.60
2023-02-13T23:44:32.192Z,11.10
2023-02-13T23:47:00.807Z,12.00
2023-02-13T23:49:29.789Z,10.80
2023-02-13T23:51:59.684Z,11.30
2023-02-13T23:54:28.163Z,10.00
2023-02-13T23:56:56.963Z,9.90
2023-02-13T23:59:25.739Z,11.70
